Shepley, Wisconsin
Current Conditions -  °F | °C
As of 8:35 AM on Friday 24 Oct 2014 (Local Time) from KAIG Reporting Station
Moderate Fog Moderate Fog  
Wind Chill: 42°   Ceiling: 300
Heat Index: 42°   Visibility: 0mi
Dew Point: 42°   Wind: 3mph
Humidity: 100%   Direction: 220°SW
Pressure: 30.01"   Gusts: NA
Location:  44.8179°N, 89.172°W
Report Text: KAIG 241335Z AUTO 22003KT M1/4SM FG OVC003 06/06 A3001 RMK AO2 T00560056
Loading
Personal Weather Stations






























Interactive Weather Map
Tropical Storm Tracking
New forecast layout! Learn more

10-Day Weather Forecast

Advertisements
Track Severe Weather on mobile